sensor_id;sensor_type;location;lat;lon;timestamp;P1;durP1;ratioP1;P2;durP2;ratioP2
34433;SDS011;34290;48.562;13.384;2023-07-09T00:01:12;10.80;;;5.00;;
34433;SDS011;34290;48.562;13.384;2023-07-09T00:03:42;11.05;;;4.85;;
34433;SDS011;34290;48.562;13.384;2023-07-09T00:06:09;9.95;;;4.97;;
34433;SDS011;34290;48.562;13.384;2023-07-09T00:08:38;13.10;;;5.07;;
34433;SDS011;34290;48.562;13.384;2023-07-09T00:11:09;11.30;;;4.68;;
34433;SDS011;34290;48.562;13.384;2023-07-09T00:13:37;11.23;;;4.97;;
34433;SDS011;34290;48.562;13.384;2023-07-09T00:16:07;9.98;;;4.95;;
34433;SDS011;34290;48.562;13.384;2023-07-09T00:18:39;10.43;;;5.35;;
34433;SDS011;34290;48.562;13.384;2023-07-09T00:21:06;8.63;;;4.72;;
34433;SDS011;34290;48.562;13.384;2023-07-09T00:23:32;11.90;;;5.30;;
34433;SDS011;34290;48.562;13.384;2023-07-09T00:25:59;8.75;;;5.13;;
34433;SDS011;34290;48.562;13.384;2023-07-09T00:28:28;11.27;;;5.15;;
34433;SDS011;34290;48.562;13.384;2023-07-09T00:30:57;10.00;;;4.88;;
34433;SDS011;34290;48.562;13.384;2023-07-09T00:33:24;11.93;;;5.55;;
34433;SDS011;34290;48.562;13.384;2023-07-09T00:35:56;9.32;;;5.18;;
34433;SDS011;34290;48.562;13.384;2023-07-09T00:38:24;10.05;;;4.93;;
34433;SDS011;34290;48.562;13.384;2023-07-09T00:40:58;11.85;;;5.32;;
34433;SDS011;34290;48.562;13.384;2023-07-09T00:43:30;10.75;;;5.80;;
34433;SDS011;34290;48.562;13.384;2023-07-09T00:49:24;10.77;;;5.20;;
34433;SDS011;34290;48.562;13.384;2023-07-09T00:51:55;11.95;;;5.60;;
34433;SDS011;34290;48.562;13.384;2023-07-09T00:54:28;10.82;;;5.50;;
34433;SDS011;34290;48.562;13.384;2023-07-09T00:57:06;10.68;;;5.63;;
34433;SDS011;34290;48.562;13.384;2023-07-09T00:59:37;12.60;;;5.45;;
34433;SDS011;34290;48.562;13.384;2023-07-09T01:02:06;11.07;;;5.47;;
34433;SDS011;34290;48.562;13.384;2023-07-09T01:04:36;11.23;;;5.20;;
34433;SDS011;34290;48.562;13.384;2023-07-09T01:07:04;12.68;;;5.68;;
34433;SDS011;34290;48.562;13.384;2023-07-09T01:09:31;10.57;;;5.65;;
34433;SDS011;34290;48.562;13.384;2023-07-09T01:12:01;12.10;;;5.63;;
34433;SDS011;34290;48.562;13.384;2023-07-09T01:14:31;15.60;;;5.18;;
34433;SDS011;34290;48.562;13.384;2023-07-09T01:17:01;11.52;;;5.68;;
34433;SDS011;34290;48.562;13.384;2023-07-09T01:19:36;11.02;;;5.53;;
34433;SDS011;34290;48.562;13.384;2023-07-09T01:22:10;10.00;;;5.35;;
34433;SDS011;34290;48.562;13.384;2023-07-09T01:24:47;8.73;;;4.95;;
34433;SDS011;34290;48.562;13.384;2023-07-09T01:27:21;14.18;;;6.03;;
34433;SDS011;34290;48.562;13.384;2023-07-09T01:29:49;10.80;;;5.63;;
34433;SDS011;34290;48.562;13.384;2023-07-09T01:32:16;10.25;;;5.72;;
34433;SDS011;34290;48.562;13.384;2023-07-09T01:34:45;12.13;;;5.93;;
34433;SDS011;34290;48.562;13.384;2023-07-09T01:37:16;14.57;;;5.80;;
34433;SDS011;34290;48.562;13.384;2023-07-09T01:39:44;12.25;;;5.75;;
34433;SDS011;34290;48.562;13.384;2023-07-09T01:42:11;9.60;;;5.28;;
34433;SDS011;34290;48.562;13.384;2023-07-09T01:44:38;9.60;;;5.60;;
34433;SDS011;34290;48.562;13.384;2023-07-09T01:47:06;13.02;;;6.00;;
34433;SDS011;34290;48.562;13.384;2023-07-09T01:49:34;14.38;;;7.40;;
34433;SDS011;34290;48.562;13.384;2023-07-09T01:52:01;12.35;;;5.65;;
34433;SDS011;34290;48.562;13.384;2023-07-09T01:54:30;14.60;;;5.88;;
34433;SDS011;34290;48.562;13.384;2023-07-09T01:57:13;14.10;;;6.00;;
34433;SDS011;34290;48.562;13.384;2023-07-09T01:59:46;10.07;;;5.97;;
34433;SDS011;34290;48.562;13.384;2023-07-09T02:02:13;11.77;;;5.80;;
34433;SDS011;34290;48.562;13.384;2023-07-09T02:04:44;13.38;;;6.20;;
34433;SDS011;34290;48.562;13.384;2023-07-09T02:07:14;16.08;;;6.45;;
34433;SDS011;34290;48.562;13.384;2023-07-09T02:09:43;12.00;;;6.10;;
34433;SDS011;34290;48.562;13.384;2023-07-09T02:12:10;12.20;;;6.07;;
34433;SDS011;34290;48.562;13.384;2023-07-09T02:14:39;14.10;;;5.70;;
34433;SDS011;34290;48.562;13.384;2023-07-09T02:17:06;12.63;;;6.05;;
34433;SDS011;34290;48.562;13.384;2023-07-09T02:19:34;12.77;;;6.10;;
34433;SDS011;34290;48.562;13.384;2023-07-09T02:22:02;12.50;;;6.45;;
34433;SDS011;34290;48.562;13.384;2023-07-09T02:24:29;14.13;;;6.15;;
34433;SDS011;34290;48.562;13.384;2023-07-09T02:26:58;11.35;;;5.88;;
34433;SDS011;34290;48.562;13.384;2023-07-09T02:29:27;12.80;;;6.35;;
34433;SDS011;34290;48.562;13.384;2023-07-09T02:31:55;11.88;;;6.13;;
34433;SDS011;34290;48.562;13.384;2023-07-09T02:34:24;13.88;;;6.13;;
34433;SDS011;34290;48.562;13.384;2023-07-09T02:36:51;10.80;;;5.93;;
34433;SDS011;34290;48.562;13.384;2023-07-09T02:39:19;14.48;;;6.10;;
34433;SDS011;34290;48.562;13.384;2023-07-09T02:41:46;11.05;;;5.97;;
34433;SDS011;34290;48.562;13.384;2023-07-09T02:44:15;11.35;;;5.75;;
34433;SDS011;34290;48.562;13.384;2023-07-09T02:46:43;14.07;;;6.07;;
34433;SDS011;34290;48.562;13.384;2023-07-09T02:49:11;13.68;;;6.00;;
34433;SDS011;34290;48.562;13.384;2023-07-09T02:51:39;10.32;;;5.80;;
34433;SDS011;34290;48.562;13.384;2023-07-09T02:54:06;11.23;;;6.03;;
34433;SDS011;34290;48.562;13.384;2023-07-09T02:56:33;14.68;;;6.97;;
34433;SDS011;34290;48.562;13.384;2023-07-09T02:59:04;12.15;;;6.03;;
34433;SDS011;34290;48.562;13.384;2023-07-09T03:01:33;11.90;;;6.18;;
34433;SDS011;34290;48.562;13.384;2023-07-09T03:04:01;10.57;;;6.22;;
34433;SDS011;34290;48.562;13.384;2023-07-09T03:06:28;13.10;;;6.90;;
34433;SDS011;34290;48.562;13.384;2023-07-09T03:08:57;15.10;;;7.07;;
34433;SDS011;34290;48.562;13.384;2023-07-09T03:11:27;14.43;;;6.60;;
34433;SDS011;34290;48.562;13.384;2023-07-09T03:13:56;14.55;;;6.25;;
34433;SDS011;34290;48.562;13.384;2023-07-09T03:16:23;15.80;;;6.55;;
34433;SDS011;34290;48.562;13.384;2023-07-09T03:18:51;13.57;;;6.72;;
34433;SDS011;34290;48.562;13.384;2023-07-09T03:21:19;12.82;;;5.63;;
34433;SDS011;34290;48.562;13.384;2023-07-09T03:23:46;12.23;;;5.85;;
34433;SDS011;34290;48.562;13.384;2023-07-09T03:26:13;13.02;;;6.55;;
34433;SDS011;34290;48.562;13.384;2023-07-09T03:28:40;13.38;;;6.10;;
34433;SDS011;34290;48.562;13.384;2023-07-09T03:31:07;13.20;;;6.10;;
34433;SDS011;34290;48.562;13.384;2023-07-09T03:33:34;11.93;;;6.20;;
34433;SDS011;34290;48.562;13.384;2023-07-09T03:36:03;11.60;;;6.35;;
34433;SDS011;34290;48.562;13.384;2023-07-09T03:38:31;13.85;;;6.63;;
34433;SDS011;34290;48.562;13.384;2023-07-09T03:40:58;12.82;;;6.70;;
34433;SDS011;34290;48.562;13.384;2023-07-09T03:43:25;13.15;;;6.82;;
34433;SDS011;34290;48.562;13.384;2023-07-09T03:45:52;11.90;;;6.72;;
34433;SDS011;34290;48.562;13.384;2023-07-09T03:48:19;12.82;;;6.43;;
34433;SDS011;34290;48.562;13.384;2023-07-09T03:50:47;10.23;;;5.65;;
34433;SDS011;34290;48.562;13.384;2023-07-09T03:53:16;9.48;;;5.72;;
34433;SDS011;34290;48.562;13.384;2023-07-09T03:55:45;13.15;;;6.45;;
34433;SDS011;34290;48.562;13.384;2023-07-09T03:58:13;12.70;;;6.82;;
34433;SDS011;34290;48.562;13.384;2023-07-09T04:00:40;12.07;;;6.22;;
34433;SDS011;34290;48.562;13.384;2023-07-09T04:03:07;14.18;;;6.88;;
34433;SDS011;34290;48.562;13.384;2023-07-09T04:05:35;13.27;;;6.05;;
34433;SDS011;34290;48.562;13.384;2023-07-09T04:08:03;12.98;;;6.53;;
34433;SDS011;34290;48.562;13.384;2023-07-09T04:10:32;10.57;;;6.22;;
34433;SDS011;34290;48.562;13.384;2023-07-09T04:12:59;12.07;;;6.53;;
34433;SDS011;34290;48.562;13.384;2023-07-09T04:15:26;11.65;;;6.10;;
34433;SDS011;34290;48.562;13.384;2023-07-09T04:17:53;12.35;;;6.45;;
34433;SDS011;34290;48.562;13.384;2023-07-09T04:20:21;13.40;;;6.38;;
34433;SDS011;34290;48.562;13.384;2023-07-09T04:22:48;13.13;;;6.28;;
34433;SDS011;34290;48.562;13.384;2023-07-09T04:25:15;12.93;;;7.00;;
34433;SDS011;34290;48.562;13.384;2023-07-09T04:27:43;12.13;;;6.35;;
34433;SDS011;34290;48.562;13.384;2023-07-09T04:30:11;9.65;;;5.70;;
34433;SDS011;34290;48.562;13.384;2023-07-09T04:32:39;10.85;;;6.10;;
34433;SDS011;34290;48.562;13.384;2023-07-09T04:35:08;11.30;;;6.30;;
34433;SDS011;34290;48.562;13.384;2023-07-09T04:37:36;12.80;;;6.20;;
34433;SDS011;34290;48.562;13.384;2023-07-09T04:40:04;15.73;;;6.30;;
34433;SDS011;34290;48.562;13.384;2023-07-09T04:42:35;12.27;;;6.38;;
34433;SDS011;34290;48.562;13.384;2023-07-09T04:45:05;12.45;;;6.55;;
34433;SDS011;34290;48.562;13.384;2023-07-09T04:47:34;12.10;;;6.00;;
34433;SDS011;34290;48.562;13.384;2023-07-09T04:50:01;10.55;;;5.63;;
34433;SDS011;34290;48.562;13.384;2023-07-09T04:52:29;11.15;;;5.95;;
34433;SDS011;34290;48.562;13.384;2023-07-09T04:54:56;9.52;;;5.50;;
34433;SDS011;34290;48.562;13.384;2023-07-09T04:57:24;9.10;;;5.60;;
34433;SDS011;34290;48.562;13.384;2023-07-09T04:59:51;14.73;;;6.03;;
34433;SDS011;34290;48.562;13.384;2023-07-09T05:02:19;11.32;;;5.78;;
34433;SDS011;34290;48.562;13.384;2023-07-09T05:04:46;10.45;;;5.85;;
34433;SDS011;34290;48.562;13.384;2023-07-09T05:07:13;11.65;;;5.90;;
34433;SDS011;34290;48.562;13.384;2023-07-09T05:09:40;8.48;;;4.97;;
34433;SDS011;34290;48.562;13.384;2023-07-09T05:12:07;12.85;;;6.25;;
34433;SDS011;34290;48.562;13.384;2023-07-09T05:14:35;11.82;;;6.10;;
34433;SDS011;34290;48.562;13.384;2023-07-09T05:17:02;15.93;;;6.53;;
34433;SDS011;34290;48.562;13.384;2023-07-09T05:19:31;10.98;;;6.53;;
34433;SDS011;34290;48.562;13.384;2023-07-09T05:21:59;13.35;;;6.22;;
34433;SDS011;34290;48.562;13.384;2023-07-09T05:24:26;10.73;;;6.65;;
34433;SDS011;34290;48.562;13.384;2023-07-09T05:26:52;13.20;;;6.47;;
34433;SDS011;34290;48.562;13.384;2023-07-09T05:29:20;12.95;;;6.93;;
34433;SDS011;34290;48.562;13.384;2023-07-09T05:31:47;13.23;;;7.20;;
34433;SDS011;34290;48.562;13.384;2023-07-09T05:34:14;14.40;;;8.10;;
34433;SDS011;34290;48.562;13.384;2023-07-09T05:36:42;12.40;;;6.78;;
34433;SDS011;34290;48.562;13.384;2023-07-09T05:39:09;14.07;;;6.80;;
34433;SDS011;34290;48.562;13.384;2023-07-09T05:41:36;12.30;;;6.80;;
34433;SDS011;34290;48.562;13.384;2023-07-09T05:44:03;13.18;;;7.00;;
34433;SDS011;34290;48.562;13.384;2023-07-09T05:46:33;11.13;;;6.15;;
34433;SDS011;34290;48.562;13.384;2023-07-09T05:49:01;13.27;;;6.40;;
34433;SDS011;34290;48.562;13.384;2023-07-09T05:51:29;10.93;;;6.10;;
34433;SDS011;34290;48.562;13.384;2023-07-09T05:53:57;10.35;;;5.90;;
34433;SDS011;34290;48.562;13.384;2023-07-09T05:56:24;11.20;;;6.25;;
34433;SDS011;34290;48.562;13.384;2023-07-09T05:58:51;10.25;;;5.93;;
34433;SDS011;34290;48.562;13.384;2023-07-09T06:01:18;11.55;;;5.78;;
34433;SDS011;34290;48.562;13.384;2023-07-09T06:03:49;11.70;;;5.72;;
34433;SDS011;34290;48.562;13.384;2023-07-09T06:06:16;11.25;;;6.15;;
34433;SDS011;34290;48.562;13.384;2023-07-09T06:08:43;12.05;;;6.40;;
34433;SDS011;34290;48.562;13.384;2023-07-09T06:11:13;12.48;;;5.70;;
34433;SDS011;34290;48.562;13.384;2023-07-09T06:13:40;11.10;;;6.38;;
34433;SDS011;34290;48.562;13.384;2023-07-09T06:16:07;10.27;;;6.03;;
34433;SDS011;34290;48.562;13.384;2023-07-09T06:18:34;9.57;;;5.88;;
34433;SDS011;34290;48.562;13.384;2023-07-09T06:21:02;10.95;;;6.00;;
34433;SDS011;34290;48.562;13.384;2023-07-09T06:23:29;10.80;;;5.65;;
34433;SDS011;34290;48.562;13.384;2023-07-09T06:25:56;10.20;;;5.90;;
34433;SDS011;34290;48.562;13.384;2023-07-09T06:28:26;9.75;;;6.00;;
34433;SDS011;34290;48.562;13.384;2023-07-09T06:30:54;10.18;;;6.28;;
34433;SDS011;34290;48.562;13.384;2023-07-09T06:33:21;12.38;;;5.90;;
34433;SDS011;34290;48.562;13.384;2023-07-09T06:35:49;11.93;;;5.72;;
34433;SDS011;34290;48.562;13.384;2023-07-09T06:38:17;8.68;;;5.80;;
34433;SDS011;34290;48.562;13.384;2023-07-09T06:40:44;9.57;;;5.75;;
34433;SDS011;34290;48.562;13.384;2023-07-09T06:43:12;10.82;;;5.68;;
34433;SDS011;34290;48.562;13.384;2023-07-09T06:45:41;17.25;;;6.10;;
34433;SDS011;34290;48.562;13.384;2023-07-09T06:48:14;10.40;;;6.47;;
34433;SDS011;34290;48.562;13.384;2023-07-09T06:50:41;8.52;;;5.80;;
34433;SDS011;34290;48.562;13.384;2023-07-09T06:53:08;10.48;;;5.70;;
34433;SDS011;34290;48.562;13.384;2023-07-09T06:55:35;8.63;;;5.60;;
34433;SDS011;34290;48.562;13.384;2023-07-09T06:58:02;8.80;;;5.53;;
34433;SDS011;34290;48.562;13.384;2023-07-09T07:00:29;9.27;;;5.50;;
34433;SDS011;34290;48.562;13.384;2023-07-09T07:02:58;11.02;;;5.65;;
34433;SDS011;34290;48.562;13.384;2023-07-09T07:05:25;9.63;;;5.70;;
34433;SDS011;34290;48.562;13.384;2023-07-09T07:07:51;10.38;;;6.00;;
34433;SDS011;34290;48.562;13.384;2023-07-09T07:10:19;11.80;;;5.88;;
34433;SDS011;34290;48.562;13.384;2023-07-09T07:12:47;10.80;;;6.18;;
34433;SDS011;34290;48.562;13.384;2023-07-09T07:15:15;10.60;;;6.30;;
34433;SDS011;34290;48.562;13.384;2023-07-09T07:17:43;10.25;;;5.57;;
34433;SDS011;34290;48.562;13.384;2023-07-09T07:20:12;15.15;;;5.82;;
34433;SDS011;34290;48.562;13.384;2023-07-09T07:22:40;9.07;;;5.78;;
34433;SDS011;34290;48.562;13.384;2023-07-09T07:25:07;9.25;;;5.28;;
34433;SDS011;34290;48.562;13.384;2023-07-09T07:27:35;11.20;;;5.53;;
34433;SDS011;34290;48.562;13.384;2023-07-09T07:30:03;11.30;;;5.53;;
34433;SDS011;34290;48.562;13.384;2023-07-09T07:32:34;12.35;;;5.50;;
34433;SDS011;34290;48.562;13.384;2023-07-09T07:35:02;13.90;;;6.15;;
34433;SDS011;34290;48.562;13.384;2023-07-09T07:37:30;10.10;;;6.00;;
34433;SDS011;34290;48.562;13.384;2023-07-09T07:39:57;12.68;;;5.68;;
34433;SDS011;34290;48.562;13.384;2023-07-09T07:42:24;11.85;;;5.97;;
34433;SDS011;34290;48.562;13.384;2023-07-09T07:44:51;9.80;;;5.72;;
34433;SDS011;34290;48.562;13.384;2023-07-09T07:47:18;11.85;;;6.25;;
34433;SDS011;34290;48.562;13.384;2023-07-09T07:49:45;9.90;;;5.40;;
34433;SDS011;34290;48.562;13.384;2023-07-09T07:52:12;12.93;;;5.57;;
34433;SDS011;34290;48.562;13.384;2023-07-09T07:54:41;12.57;;;5.85;;
34433;SDS011;34290;48.562;13.384;2023-07-09T07:57:08;11.75;;;5.80;;
34433;SDS011;34290;48.562;13.384;2023-07-09T07:59:35;9.30;;;5.72;;
34433;SDS011;34290;48.562;13.384;2023-07-09T08:02:03;9.15;;;5.63;;
34433;SDS011;34290;48.562;13.384;2023-07-09T08:04:30;10.65;;;6.25;;
34433;SDS011;34290;48.562;13.384;2023-07-09T08:06:57;13.35;;;6.07;;
34433;SDS011;34290;48.562;13.384;2023-07-09T08:09:25;10.25;;;5.95;;
34433;SDS011;34290;48.562;13.384;2023-07-09T08:11:53;10.07;;;5.97;;
34433;SDS011;34290;48.562;13.384;2023-07-09T08:14:20;11.05;;;5.93;;
34433;SDS011;34290;48.562;13.384;2023-07-09T08:16:47;12.52;;;6.03;;
34433;SDS011;34290;48.562;13.384;2023-07-09T08:19:18;9.65;;;5.93;;
34433;SDS011;34290;48.562;13.384;2023-07-09T08:21:45;13.70;;;5.90;;
34433;SDS011;34290;48.562;13.384;2023-07-09T08:24:13;10.32;;;6.40;;
34433;SDS011;34290;48.562;13.384;2023-07-09T08:26:40;11.63;;;6.20;;
34433;SDS011;34290;48.562;13.384;2023-07-09T08:29:08;14.48;;;6.10;;
34433;SDS011;34290;48.562;13.384;2023-07-09T08:31:35;17.58;;;6.18;;
34433;SDS011;34290;48.562;13.384;2023-07-09T08:34:02;12.38;;;6.15;;
34433;SDS011;34290;48.562;13.384;2023-07-09T08:36:32;10.70;;;6.00;;
34433;SDS011;34290;48.562;13.384;2023-07-09T08:39:00;10.95;;;5.70;;
34433;SDS011;34290;48.562;13.384;2023-07-09T08:41:32;11.40;;;5.97;;
34433;SDS011;34290;48.562;13.384;2023-07-09T08:44:11;11.98;;;5.90;;
34433;SDS011;34290;48.562;13.384;2023-07-09T08:46:54;12.57;;;6.10;;
34433;SDS011;34290;48.562;13.384;2023-07-09T08:49:30;8.70;;;5.78;;
34433;SDS011;34290;48.562;13.384;2023-07-09T08:52:04;10.48;;;5.82;;
34433;SDS011;34290;48.562;13.384;2023-07-09T08:54:36;11.23;;;5.95;;
34433;SDS011;34290;48.562;13.384;2023-07-09T08:57:07;12.27;;;6.25;;
34433;SDS011;34290;48.562;13.384;2023-07-09T08:59:44;10.98;;;6.13;;
34433;SDS011;34290;48.562;13.384;2023-07-09T09:02:15;10.52;;;5.90;;
34433;SDS011;34290;48.562;13.384;2023-07-09T09:04:51;9.93;;;5.63;;
34433;SDS011;34290;48.562;13.384;2023-07-09T09:07:19;11.77;;;6.25;;
34433;SDS011;34290;48.562;13.384;2023-07-09T09:09:56;9.43;;;5.32;;
34433;SDS011;34290;48.562;13.384;2023-07-09T09:12:27;9.80;;;5.57;;
34433;SDS011;34290;48.562;13.384;2023-07-09T09:14:59;10.27;;;5.88;;
34433;SDS011;34290;48.562;13.384;2023-07-09T09:17:29;9.57;;;5.53;;
34433;SDS011;34290;48.562;13.384;2023-07-09T09:20:02;10.98;;;5.72;;
34433;SDS011;34290;48.562;13.384;2023-07-09T09:22:46;10.98;;;6.00;;
34433;SDS011;34290;48.562;13.384;2023-07-09T09:25:18;10.82;;;6.13;;
34433;SDS011;34290;48.562;13.384;2023-07-09T09:27:52;9.77;;;5.45;;
34433;SDS011;34290;48.562;13.384;2023-07-09T09:30:21;11.43;;;5.90;;
34433;SDS011;34290;48.562;13.384;2023-07-09T09:32:53;10.63;;;6.28;;
34433;SDS011;34290;48.562;13.384;2023-07-09T09:35:25;10.18;;;5.55;;
34433;SDS011;34290;48.562;13.384;2023-07-09T09:37:55;10.82;;;6.15;;
34433;SDS011;34290;48.562;13.384;2023-07-09T09:40:24;10.93;;;5.95;;
34433;SDS011;34290;48.562;13.384;2023-07-09T09:42:53;11.45;;;5.82;;
34433;SDS011;34290;48.562;13.384;2023-07-09T09:45:26;11.70;;;5.72;;
34433;SDS011;34290;48.562;13.384;2023-07-09T09:47:58;11.13;;;5.88;;
34433;SDS011;34290;48.562;13.384;2023-07-09T09:50:27;11.15;;;6.10;;
34433;SDS011;34290;48.562;13.384;2023-07-09T09:52:58;14.02;;;5.82;;
34433;SDS011;34290;48.562;13.384;2023-07-09T09:55:28;10.30;;;5.25;;
34433;SDS011;34290;48.562;13.384;2023-07-09T09:57:57;8.40;;;4.88;;
34433;SDS011;34290;48.562;13.384;2023-07-09T10:00:27;11.55;;;5.32;;
34433;SDS011;34290;48.562;13.384;2023-07-09T10:02:58;11.93;;;5.68;;
34433;SDS011;34290;48.562;13.384;2023-07-09T10:05:29;9.63;;;5.60;;
34433;SDS011;34290;48.562;13.384;2023-07-09T10:07:59;12.25;;;5.60;;
34433;SDS011;34290;48.562;13.384;2023-07-09T10:10:32;12.80;;;5.47;;
34433;SDS011;34290;48.562;13.384;2023-07-09T10:13:05;10.15;;;5.40;;
34433;SDS011;34290;48.562;13.384;2023-07-09T10:15:42;9.70;;;4.88;;
34433;SDS011;34290;48.562;13.384;2023-07-09T10:18:17;8.73;;;5.03;;
34433;SDS011;34290;48.562;13.384;2023-07-09T10:21:00;10.13;;;5.40;;
34433;SDS011;34290;48.562;13.384;2023-07-09T10:23:35;9.57;;;5.40;;
34433;SDS011;34290;48.562;13.384;2023-07-09T10:26:11;8.52;;;4.57;;
34433;SDS011;34290;48.562;13.384;2023-07-09T10:28:49;9.10;;;4.57;;
34433;SDS011;34290;48.562;13.384;2023-07-09T10:31:30;7.60;;;4.40;;
34433;SDS011;34290;48.562;13.384;2023-07-09T10:34:09;7.32;;;4.32;;
34433;SDS011;34290;48.562;13.384;2023-07-09T10:36:48;8.82;;;4.65;;
34433;SDS011;34290;48.562;13.384;2023-07-09T10:39:27;7.15;;;4.13;;
34433;SDS011;34290;48.562;13.384;2023-07-09T10:41:59;8.35;;;4.30;;
34433;SDS011;34290;48.562;13.384;2023-07-09T10:44:28;8.90;;;4.80;;
34433;SDS011;34290;48.562;13.384;2023-07-09T10:47:02;7.25;;;4.63;;
34433;SDS011;34290;48.562;13.384;2023-07-09T10:49:34;12.55;;;5.10;;
34433;SDS011;34290;48.562;13.384;2023-07-09T10:52:05;7.55;;;4.40;;
34433;SDS011;34290;48.562;13.384;2023-07-09T10:54:39;9.07;;;5.00;;
34433;SDS011;34290;48.562;13.384;2023-07-09T10:57:17;9.20;;;4.80;;
34433;SDS011;34290;48.562;13.384;2023-07-09T10:59:48;11.60;;;4.70;;
34433;SDS011;34290;48.562;13.384;2023-07-09T11:02:19;10.35;;;4.90;;
34433;SDS011;34290;48.562;13.384;2023-07-09T11:04:51;8.18;;;4.50;;
34433;SDS011;34290;48.562;13.384;2023-07-09T11:07:22;7.80;;;4.60;;
34433;SDS011;34290;48.562;13.384;2023-07-09T11:09:53;9.50;;;4.85;;
34433;SDS011;34290;48.562;13.384;2023-07-09T11:12:24;11.40;;;5.00;;
34433;SDS011;34290;48.562;13.384;2023-07-09T11:14:57;9.63;;;4.80;;
34433;SDS011;34290;48.562;13.384;2023-07-09T11:17:29;10.07;;;4.85;;
34433;SDS011;34290;48.562;13.384;2023-07-09T11:19:58;10.20;;;4.80;;
34433;SDS011;34290;48.562;13.384;2023-07-09T11:22:27;7.60;;;4.45;;
34433;SDS011;34290;48.562;13.384;2023-07-09T11:25:06;10.48;;;5.00;;
34433;SDS011;34290;48.562;13.384;2023-07-09T11:27:44;8.00;;;4.47;;
34433;SDS011;34290;48.562;13.384;2023-07-09T11:30:18;8.57;;;4.72;;
34433;SDS011;34290;48.562;13.384;2023-07-09T11:32:51;8.27;;;4.45;;
34433;SDS011;34290;48.562;13.384;2023-07-09T11:35:21;9.50;;;5.28;;
34433;SDS011;34290;48.562;13.384;2023-07-09T11:37:49;8.43;;;4.45;;
34433;SDS011;34290;48.562;13.384;2023-07-09T11:40:18;7.28;;;4.30;;
34433;SDS011;34290;48.562;13.384;2023-07-09T11:42:47;9.45;;;4.68;;
34433;SDS011;34290;48.562;13.384;2023-07-09T11:45:20;10.20;;;4.88;;
34433;SDS011;34290;48.562;13.384;2023-07-09T11:47:53;8.70;;;4.72;;
34433;SDS011;34290;48.562;13.384;2023-07-09T11:50:29;7.35;;;4.45;;
34433;SDS011;34290;48.562;13.384;2023-07-09T11:52:59;8.45;;;4.65;;
34433;SDS011;34290;48.562;13.384;2023-07-09T11:55:31;9.98;;;4.53;;
34433;SDS011;34290;48.562;13.384;2023-07-09T11:58:08;7.22;;;4.50;;
34433;SDS011;34290;48.562;13.384;2023-07-09T12:00:37;6.72;;;4.07;;
34433;SDS011;34290;48.562;13.384;2023-07-09T12:03:18;7.82;;;4.45;;
34433;SDS011;34290;48.562;13.384;2023-07-09T12:05:48;8.25;;;4.40;;
34433;SDS011;34290;48.562;13.384;2023-07-09T12:08:17;7.75;;;4.38;;
34433;SDS011;34290;48.562;13.384;2023-07-09T12:10:48;6.93;;;4.10;;
34433;SDS011;34290;48.562;13.384;2023-07-09T12:13:15;7.18;;;4.38;;
34433;SDS011;34290;48.562;13.384;2023-07-09T12:15:42;7.72;;;4.55;;
34433;SDS011;34290;48.562;13.384;2023-07-09T12:18:11;7.80;;;4.38;;
34433;SDS011;34290;48.562;13.384;2023-07-09T12:20:39;9.10;;;4.88;;
34433;SDS011;34290;48.562;13.384;2023-07-09T12:23:11;8.88;;;4.57;;
34433;SDS011;34290;48.562;13.384;2023-07-09T12:25:47;10.27;;;5.20;;
34433;SDS011;34290;48.562;13.384;2023-07-09T12:28:15;7.82;;;4.47;;
34433;SDS011;34290;48.562;13.384;2023-07-09T12:30:44;8.35;;;4.80;;
34433;SDS011;34290;48.562;13.384;2023-07-09T12:33:16;7.80;;;4.47;;
34433;SDS011;34290;48.562;13.384;2023-07-09T12:35:44;9.20;;;4.50;;
34433;SDS011;34290;48.562;13.384;2023-07-09T12:38:19;10.05;;;4.60;;
34433;SDS011;34290;48.562;13.384;2023-07-09T12:40:47;8.32;;;4.63;;
34433;SDS011;34290;48.562;13.384;2023-07-09T12:43:16;10.75;;;4.80;;
34433;SDS011;34290;48.562;13.384;2023-07-09T12:45:46;10.00;;;4.65;;
34433;SDS011;34290;48.562;13.384;2023-07-09T12:48:13;7.78;;;4.30;;
34433;SDS011;34290;48.562;13.384;2023-07-09T12:50:42;9.50;;;4.55;;
34433;SDS011;34290;48.562;13.384;2023-07-09T12:53:17;8.90;;;4.70;;
34433;SDS011;34290;48.562;13.384;2023-07-09T12:55:47;8.95;;;4.43;;
34433;SDS011;34290;48.562;13.384;2023-07-09T12:58:19;8.75;;;4.95;;
34433;SDS011;34290;48.562;13.384;2023-07-09T13:00:48;8.88;;;4.60;;
34433;SDS011;34290;48.562;13.384;2023-07-09T13:03:18;7.95;;;4.18;;
34433;SDS011;34290;48.562;13.384;2023-07-09T13:05:54;8.43;;;4.60;;
34433;SDS011;34290;48.562;13.384;2023-07-09T13:08:23;9.15;;;5.28;;
34433;SDS011;34290;48.562;13.384;2023-07-09T13:10:51;7.88;;;4.28;;
34433;SDS011;34290;48.562;13.384;2023-07-09T13:13:19;6.60;;;3.88;;
34433;SDS011;34290;48.562;13.384;2023-07-09T13:15:49;6.65;;;3.80;;
34433;SDS011;34290;48.562;13.384;2023-07-09T13:18:23;8.68;;;4.57;;
34433;SDS011;34290;48.562;13.384;2023-07-09T13:20:51;7.20;;;4.18;;
34433;SDS011;34290;48.562;13.384;2023-07-09T13:23:21;7.82;;;4.35;;
34433;SDS011;34290;48.562;13.384;2023-07-09T13:25:49;9.15;;;4.20;;
34433;SDS011;34290;48.562;13.384;2023-07-09T13:28:18;8.77;;;4.03;;
34433;SDS011;34290;48.562;13.384;2023-07-09T13:30:46;8.43;;;4.15;;
34433;SDS011;34290;48.562;13.384;2023-07-09T13:33:13;6.43;;;4.03;;
34433;SDS011;34290;48.562;13.384;2023-07-09T13:35:44;10.43;;;4.25;;
34433;SDS011;34290;48.562;13.384;2023-07-09T13:38:14;9.45;;;4.10;;
34433;SDS011;34290;48.562;13.384;2023-07-09T13:40:43;6.68;;;3.88;;
34433;SDS011;34290;48.562;13.384;2023-07-09T13:43:12;8.27;;;3.70;;
34433;SDS011;34290;48.562;13.384;2023-07-09T13:45:39;8.70;;;4.07;;
34433;SDS011;34290;48.562;13.384;2023-07-09T13:48:10;7.32;;;4.30;;
34433;SDS011;34290;48.562;13.384;2023-07-09T13:50:41;6.32;;;3.78;;
34433;SDS011;34290;48.562;13.384;2023-07-09T13:53:13;8.45;;;4.30;;
34433;SDS011;34290;48.562;13.384;2023-07-09T13:55:42;7.90;;;4.13;;
34433;SDS011;34290;48.562;13.384;2023-07-09T13:58:09;7.90;;;4.60;;
34433;SDS011;34290;48.562;13.384;2023-07-09T14:00:36;7.13;;;3.60;;
34433;SDS011;34290;48.562;13.384;2023-07-09T14:03:07;7.25;;;3.55;;
34433;SDS011;34290;48.562;13.384;2023-07-09T14:05:39;9.63;;;4.00;;
34433;SDS011;34290;48.562;13.384;2023-07-09T14:08:08;5.85;;;3.90;;
34433;SDS011;34290;48.562;13.384;2023-07-09T14:10:36;8.77;;;4.15;;
34433;SDS011;34290;48.562;13.384;2023-07-09T14:13:03;7.25;;;3.95;;
34433;SDS011;34290;48.562;13.384;2023-07-09T14:15:30;8.00;;;4.28;;
34433;SDS011;34290;48.562;13.384;2023-07-09T14:17:57;6.75;;;3.88;;
34433;SDS011;34290;48.562;13.384;2023-07-09T14:20:24;9.57;;;4.30;;
34433;SDS011;34290;48.562;13.384;2023-07-09T14:22:52;6.72;;;3.75;;
34433;SDS011;34290;48.562;13.384;2023-07-09T14:25:22;7.13;;;4.05;;
34433;SDS011;34290;48.562;13.384;2023-07-09T14:27:51;6.22;;;3.90;;
34433;SDS011;34290;48.562;13.384;2023-07-09T14:30:20;6.82;;;4.20;;
34433;SDS011;34290;48.562;13.384;2023-07-09T14:32:49;10.18;;;4.60;;
34433;SDS011;34290;48.562;13.384;2023-07-09T14:35:18;7.13;;;4.50;;
34433;SDS011;34290;48.562;13.384;2023-07-09T14:37:47;12.63;;;4.80;;
34433;SDS011;34290;48.562;13.384;2023-07-09T14:40:16;7.63;;;4.18;;
34433;SDS011;34290;48.562;13.384;2023-07-09T14:42:46;6.78;;;4.00;;